createdAt,value
2019-04-22T00:00:57.653Z,0.00
2019-04-22T00:02:02.328Z,0.00
2019-04-22T00:03:03.053Z,0.00
2019-04-22T00:04:06.120Z,0.00
2019-04-22T00:05:07.249Z,0.00
2019-04-22T00:06:17.993Z,0.00
2019-04-22T00:07:24.076Z,0.00
2019-04-22T00:08:24.265Z,0.00
2019-04-22T00:09:25.420Z,0.00
2019-04-22T00:10:26.035Z,0.00
2019-04-22T00:11:30.360Z,0.00
2019-04-22T00:12:32.497Z,0.00
2019-04-22T00:13:26.365Z,0.00
2019-04-22T00:14:19.402Z,0.00
2019-04-22T00:15:18.040Z,0.00
2019-04-22T00:16:26.411Z,0.00
2019-04-22T00:17:32.992Z,0.00
2019-04-22T00:18:22.385Z,0.00
2019-04-22T00:20:22.686Z,0.00
2019-04-22T00:21:25.812Z,0.00
2019-04-22T00:22:22.292Z,0.00
2019-04-22T00:23:23.492Z,0.00
2019-04-22T00:24:27.207Z,0.00
2019-04-22T00:25:27.922Z,0.00
2019-04-22T00:26:23.925Z,0.00
2019-04-22T00:27:30.889Z,0.00
2019-04-22T00:28:23.258Z,0.00
2019-04-22T00:29:42.608Z,0.00
2019-04-22T00:30:22.547Z,0.00
2019-04-22T00:31:23.605Z,0.00
2019-04-22T00:32:22.602Z,0.00
2019-04-22T00:33:20.542Z,0.00
2019-04-22T00:34:21.265Z,0.00
2019-04-22T00:35:19.552Z,0.00
2019-04-22T00:36:23.785Z,0.00
2019-04-22T00:37:23.506Z,0.00
2019-04-22T00:38:23.455Z,0.00
2019-04-22T00:39:33.715Z,0.00
2019-04-22T00:41:26.713Z,0.00
2019-04-22T00:42:21.468Z,0.00
2019-04-22T00:43:24.240Z,0.00
2019-04-22T00:44:25.650Z,0.00
2019-04-22T00:45:40.047Z,0.00
2019-04-22T00:46:27.562Z,0.00
2019-04-22T00:47:27.944Z,0.00
2019-04-22T00:48:48.658Z,0.00
2019-04-22T00:50:06.269Z,0.00
2019-04-22T00:50:26.790Z,0.00
2019-04-22T00:51:26.695Z,0.00
2019-04-22T00:52:22.359Z,0.00
2019-04-22T00:53:23.514Z,0.00
2019-04-22T00:54:21.417Z,0.00
2019-04-22T00:55:24.814Z,0.00
2019-04-22T00:56:35.914Z,0.00
2019-04-22T00:57:21.759Z,0.00
2019-04-22T00:58:24.075Z,0.00
2019-04-22T00:59:17.327Z,0.00
2019-04-22T01:00:24.750Z,0.00
2019-04-22T01:01:26.265Z,0.00
2019-04-22T01:02:23.000Z,0.00
2019-04-22T01:03:32.316Z,0.00
2019-04-22T01:04:29.138Z,0.00
2019-04-22T01:05:21.415Z,0.00
2019-04-22T01:06:21.504Z,0.00
2019-04-22T01:07:17.663Z,0.00
2019-04-22T01:08:27.682Z,0.00
2019-04-22T01:09:28.168Z,0.00
2019-04-22T01:10:26.326Z,0.00
2019-04-22T01:11:29.493Z,0.00
2019-04-22T01:12:20.667Z,0.00
2019-04-22T01:13:19.536Z,0.00
2019-04-22T01:14:21.748Z,0.00
2019-04-22T01:15:23.622Z,0.00
2019-04-22T01:16:22.985Z,0.00
2019-04-22T01:17:19.019Z,0.00
2019-04-22T01:18:15.850Z,0.00
2019-04-22T01:19:21.280Z,0.00
2019-04-22T01:20:45.309Z,0.00
2019-04-22T01:21:40.547Z,0.00
2019-04-22T01:22:13.638Z,0.00
2019-04-22T01:23:19.515Z,0.00
2019-04-22T01:24:16.763Z,0.00
2019-04-22T01:25:19.182Z,0.00
2019-04-22T01:26:09.472Z,0.00
2019-04-22T01:27:12.998Z,0.00
2019-04-22T01:28:12.634Z,0.00
2019-04-22T01:29:08.323Z,0.00
2019-04-22T01:30:10.676Z,0.00
2019-04-22T01:31:04.722Z,0.00
2019-04-22T01:31:56.455Z,0.00
2019-04-22T01:33:08.303Z,0.00
2019-04-22T01:34:10.279Z,0.00
2019-04-22T01:35:08.389Z,0.00
2019-04-22T01:36:13.699Z,0.00
2019-04-22T01:37:14.182Z,0.00
2019-04-22T01:38:13.325Z,0.00
2019-04-22T01:39:26.980Z,0.00
2019-04-22T01:40:24.172Z,0.00
2019-04-22T01:41:25.301Z,0.00
2019-04-22T01:42:15.779Z,0.00
2019-04-22T01:43:25.100Z,0.00
2019-04-22T01:44:29.437Z,0.00
2019-04-22T01:45:25.705Z,0.00
2019-04-22T01:46:25.898Z,0.00
2019-04-22T01:47:25.118Z,0.00
2019-04-22T01:48:26.413Z,0.00
2019-04-22T01:49:21.425Z,0.00
2019-04-22T01:50:21.441Z,0.00
2019-04-22T01:51:35.444Z,0.00
2019-04-22T01:52:25.451Z,0.00
2019-04-22T01:53:19.626Z,0.00
2019-04-22T01:54:29.727Z,0.00
2019-04-22T01:55:27.715Z,0.00
2019-04-22T01:56:24.263Z,0.00
2019-04-22T01:57:18.805Z,0.00
2019-04-22T01:58:17.138Z,0.00
2019-04-22T01:59:15.703Z,0.00
2019-04-22T02:00:11.332Z,0.00
2019-04-22T02:01:22.103Z,0.00
2019-04-22T02:02:23.325Z,0.00
2019-04-22T02:03:25.980Z,0.00
2019-04-22T02:04:30.413Z,0.00
2019-04-22T02:06:23.539Z,0.00
2019-04-22T02:07:25.420Z,0.00
2019-04-22T02:08:32.872Z,0.00
2019-04-22T02:09:38.621Z,0.00
2019-04-22T02:10:32.007Z,0.00
2019-04-22T02:11:26.562Z,0.00
2019-04-22T02:12:21.368Z,0.00
2019-04-22T02:13:21.872Z,0.00
2019-04-22T02:14:26.899Z,0.00
2019-04-22T02:15:24.046Z,0.00
2019-04-22T02:16:20.094Z,0.00
2019-04-22T02:17:28.652Z,0.00
2019-04-22T02:18:23.113Z,0.00
2019-04-22T02:19:22.763Z,0.00
2019-04-22T02:20:17.953Z,0.00
2019-04-22T02:21:22.924Z,0.00
2019-04-22T02:22:39.783Z,0.00
2019-04-22T02:24:26.354Z,0.00
2019-04-22T02:25:30.126Z,0.00
2019-04-22T02:26:25.767Z,0.00
2019-04-22T02:27:29.219Z,0.00
2019-04-22T02:28:33.759Z,0.00
2019-04-22T02:29:23.256Z,0.00
2019-04-22T02:30:27.821Z,0.00
2019-04-22T02:31:38.092Z,0.00
2019-04-22T02:32:48.604Z,0.00
2019-04-22T02:35:34.592Z,0.00
2019-04-22T02:36:30.082Z,0.00
2019-04-22T02:37:26.485Z,0.00
2019-04-22T02:38:48.869Z,0.00
2019-04-22T02:40:33.147Z,0.00
2019-04-22T02:41:26.483Z,0.00
2019-04-22T02:42:21.586Z,0.00
2019-04-22T02:43:46.449Z,0.00
2019-04-22T02:45:26.445Z,0.00
2019-04-22T02:47:37.321Z,0.00
2019-04-22T02:48:53.379Z,0.00
2019-04-22T02:49:30.668Z,0.00
2019-04-22T02:50:18.695Z,0.00
2019-04-22T02:51:27.803Z,0.00
2019-04-22T02:52:43.557Z,0.00
2019-04-22T02:53:58.575Z,0.00
2019-04-22T02:55:23.694Z,0.00
2019-04-22T02:56:31.623Z,0.00
2019-04-22T02:58:37.356Z,0.00
2019-04-22T02:59:28.821Z,0.00
2019-04-22T03:00:29.285Z,0.00
2019-04-22T03:02:28.620Z,0.00
2019-04-22T03:04:37.465Z,0.00
2019-04-22T03:05:37.963Z,0.00
2019-04-22T03:06:33.465Z,0.00
2019-04-22T03:07:25.985Z,0.00
2019-04-22T03:08:31.898Z,0.00
2019-04-22T03:09:25.615Z,0.00
2019-04-22T03:10:33.464Z,0.00
2019-04-22T03:11:25.364Z,0.00
2019-04-22T03:12:51.987Z,0.00
2019-04-22T03:14:22.287Z,0.00
2019-04-22T03:15:20.069Z,0.00
2019-04-22T03:17:28.676Z,0.00
2019-04-22T03:18:46.869Z,0.00
2019-04-22T03:19:35.929Z,0.00
2019-04-22T03:20:42.009Z,0.00
2019-04-22T03:21:23.951Z,0.00
2019-04-22T03:22:24.190Z,0.00
2019-04-22T03:23:35.671Z,0.00
2019-04-22T03:24:25.735Z,0.00
2019-04-22T03:27:29.935Z,0.00
2019-04-22T03:28:32.940Z,0.00
2019-04-22T03:29:40.090Z,0.00
2019-04-22T03:31:54.847Z,0.00
2019-04-22T03:35:36.706Z,0.00
2019-04-22T03:37:32.264Z,4.00
2019-04-22T03:38:51.725Z,0.00
2019-04-22T03:39:37.755Z,4.00
2019-04-22T03:41:41.347Z,4.00
2019-04-22T03:42:23.333Z,8.00
2019-04-22T03:43:35.914Z,4.00
2019-04-22T03:44:30.976Z,8.00
2019-04-22T03:46:30.131Z,8.00
2019-04-22T03:47:38.682Z,12.00
2019-04-22T03:48:27.088Z,12.00
2019-04-22T03:49:50.004Z,16.00
2019-04-22T03:51:38.457Z,12.00
2019-04-22T03:52:20.393Z,20.00
2019-04-22T03:53:38.397Z,20.00
2019-04-22T03:56:56.415Z,24.00
2019-04-22T03:57:40.479Z,28.00
2019-04-22T03:58:23.779Z,28.00
2019-04-22T03:59:33.466Z,28.00
2019-04-22T04:00:35.474Z,32.00
2019-04-22T04:01:36.639Z,36.00
2019-04-22T04:02:28.816Z,40.00
2019-04-22T04:03:19.113Z,40.00
2019-04-22T04:04:32.811Z,44.00
2019-04-22T04:05:45.508Z,48.00
2019-04-22T04:06:36.599Z,48.00
2019-04-22T04:09:39.259Z,56.00
2019-04-22T04:11:32.101Z,60.00
2019-04-22T04:13:27.520Z,68.00
2019-04-22T04:14:38.034Z,68.00
2019-04-22T04:15:28.441Z,72.00
2019-04-22T04:16:29.872Z,76.00
2019-04-22T04:17:29.262Z,76.00
2019-04-22T04:18:33.106Z,80.00
2019-04-22T04:19:34.492Z,84.00
2019-04-22T04:20:28.698Z,84.00
2019-04-22T04:21:32.942Z,84.00
2019-04-22T04:24:48.037Z,96.00
2019-04-22T04:25:38.129Z,96.00
2019-04-22T04:26:35.309Z,100.00
2019-04-22T04:27:42.770Z,104.00
2019-04-22T04:28:43.356Z,104.00
2019-04-22T04:30:29.991Z,112.00
2019-04-22T04:31:33.320Z,112.00
2019-04-22T04:32:37.904Z,112.00
2019-04-22T04:33:35.810Z,116.00
2019-04-22T04:34:43.798Z,120.00
2019-04-22T04:35:33.200Z,124.00
2019-04-22T04:36:28.369Z,124.00
2019-04-22T04:37:42.556Z,128.00
2019-04-22T04:38:28.727Z,128.00
2019-04-22T04:39:26.820Z,128.00
2019-04-22T04:40:26.428Z,136.00
2019-04-22T04:43:25.213Z,140.00
2019-04-22T04:44:35.148Z,144.00
2019-04-22T04:46:42.873Z,148.00
2019-04-22T04:48:39.194Z,156.00
2019-04-22T04:49:37.307Z,156.00
2019-04-22T04:54:31.750Z,176.00
2019-04-22T04:56:36.416Z,180.00
2019-04-22T04:57:33.736Z,180.00
2019-04-22T04:58:34.925Z,180.00
2019-04-22T04:59:33.284Z,188.00
2019-04-22T05:02:30.878Z,200.00
2019-04-22T05:03:29.757Z,200.00
2019-04-22T05:05:28.210Z,208.00
2019-04-22T05:08:38.504Z,220.00
2019-04-22T05:08:38.543Z,216.00
2019-04-22T05:10:47.789Z,228.00
2019-04-22T05:11:43.003Z,232.00
2019-04-22T05:12:33.895Z,236.00
2019-04-22T05:13:39.991Z,240.00
2019-04-22T05:17:25.488Z,252.00
2019-04-22T05:18:18.991Z,256.00
2019-04-22T05:19:37.816Z,256.00
2019-04-22T05:21:21.891Z,264.00
2019-04-22T05:22:20.447Z,268.00
2019-04-22T05:23:28.898Z,268.00
2019-04-22T05:24:22.854Z,276.00
2019-04-22T05:28:20.504Z,288.00
2019-04-22T05:29:34.665Z,292.00
2019-04-22T05:30:26.871Z,296.00
2019-04-22T05:31:24.084Z,300.00
2019-04-22T05:32:22.786Z,304.00
2019-04-22T05:33:21.433Z,312.00
2019-04-22T05:34:21.497Z,312.00
2019-04-22T05:35:20.783Z,316.00
2019-04-22T05:36:23.497Z,320.00
2019-04-22T05:37:22.815Z,324.00
2019-04-22T05:38:27.167Z,328.00
2019-04-22T05:39:15.762Z,328.00
2019-04-22T05:40:22.979Z,332.00
2019-04-22T05:41:17.728Z,336.00
2019-04-22T05:42:21.746Z,340.00
2019-04-22T05:43:21.558Z,344.00
2019-04-22T05:44:37.270Z,352.00
2019-04-22T05:46:15.757Z,356.00
2019-04-22T05:47:19.525Z,360.00
2019-04-22T05:48:23.176Z,364.00
2019-04-22T05:49:18.212Z,364.00
2019-04-22T05:50:18.729Z,372.00
2019-04-22T05:51:21.723Z,376.00
2019-04-22T05:52:23.096Z,380.00
2019-04-22T05:53:14.880Z,384.00
2019-04-22T05:54:22.299Z,384.00
2019-04-22T05:55:22.418Z,388.00
2019-04-22T05:56:28.663Z,396.00
2019-04-22T05:57:18.342Z,400.00
2019-04-22T05:58:15.216Z,400.00
2019-04-22T05:59:20.837Z,404.00
2019-04-22T06:00:27.613Z,408.00
2019-04-22T06:02:26.863Z,420.00
2019-04-22T06:03:16.628Z,424.00
2019-04-22T06:04:19.920Z,428.00
2019-04-22T06:05:19.713Z,432.00
2019-04-22T06:06:18.002Z,432.00
2019-04-22T06:07:22.722Z,440.00
2019-04-22T06:08:18.253Z,444.00
2019-04-22T06:09:30.557Z,448.00
2019-04-22T06:10:29.056Z,452.00
2019-04-22T06:11:22.870Z,456.00
2019-04-22T06:12:12.344Z,456.00
2019-04-22T06:13:13.355Z,464.00
2019-04-22T06:14:15.288Z,468.00
2019-04-22T06:15:18.412Z,472.00
2019-04-22T06:16:18.246Z,472.00
2019-04-22T06:17:20.582Z,476.00
2019-04-22T06:18:22.803Z,480.00
2019-04-22T06:19:31.304Z,484.00
2019-04-22T06:20:15.925Z,492.00
2019-04-22T06:21:22.524Z,496.00
2019-04-22T06:22:25.248Z,500.00
2019-04-22T06:23:18.623Z,504.00
2019-04-22T06:24:23.270Z,508.00
2019-04-22T06:25:27.631Z,516.00
2019-04-22T06:27:21.923Z,520.00
2019-04-22T06:28:28.630Z,524.00
2019-04-22T06:29:23.174Z,532.00
2019-04-22T06:30:23.369Z,536.00
2019-04-22T06:33:24.174Z,548.00
2019-04-22T06:34:22.097Z,552.00
2019-04-22T06:35:23.409Z,556.00
2019-04-22T06:36:21.122Z,564.00
2019-04-22T06:37:18.607Z,568.00
2019-04-22T06:38:30.192Z,568.00
2019-04-22T06:39:26.522Z,576.00
2019-04-22T06:40:24.814Z,580.00
2019-04-22T06:41:22.498Z,584.00
2019-04-22T06:42:21.514Z,588.00
2019-04-22T06:43:16.305Z,592.00
2019-04-22T06:44:18.516Z,596.00
2019-04-22T06:45:18.897Z,600.00
2019-04-22T06:46:21.170Z,608.00
2019-04-22T06:47:28.744Z,612.00
2019-04-22T06:48:19.237Z,616.00
2019-04-22T06:49:22.774Z,620.00
2019-04-22T06:50:24.513Z,624.00
2019-04-22T06:51:19.887Z,628.00
2019-04-22T06:52:28.905Z,632.00
2019-04-22T06:53:17.470Z,636.00
2019-04-22T06:54:21.635Z,640.00
2019-04-22T06:55:22.928Z,648.00
2019-04-22T06:56:20.655Z,648.00
2019-04-22T06:57:19.210Z,656.00
2019-04-22T06:58:15.054Z,660.00
2019-04-22T06:59:18.416Z,664.00
2019-04-22T07:00:21.850Z,668.00
2019-04-22T07:01:24.218Z,672.00
2019-04-22T07:02:26.661Z,676.00
2019-04-22T07:04:17.138Z,688.00
2019-04-22T07:05:32.958Z,696.00
2019-04-22T07:06:24.064Z,700.00
2019-04-22T07:07:21.642Z,708.00
2019-04-22T07:09:28.788Z,720.00
2019-04-22T07:10:30.577Z,720.00
2019-04-22T07:11:15.368Z,728.00
2019-04-22T07:12:17.290Z,736.00
2019-04-22T07:13:23.657Z,744.00
2019-04-22T07:14:28.627Z,748.00
2019-04-22T07:15:35.768Z,752.00
2019-04-22T07:16:18.745Z,756.00
2019-04-22T07:17:18.415Z,764.00
2019-04-22T07:18:24.905Z,764.00
2019-04-22T07:19:20.549Z,768.00
2019-04-22T07:20:22.064Z,776.00
2019-04-22T07:21:15.808Z,776.00
2019-04-22T07:23:24.734Z,780.00
2019-04-22T07:24:40.625Z,788.00
2019-04-22T07:25:15.822Z,792.00
2019-04-22T07:26:13.948Z,796.00
2019-04-22T07:27:14.676Z,796.00
2019-04-22T07:28:15.671Z,796.00
2019-04-22T07:29:23.843Z,800.00
2019-04-22T07:31:16.269Z,808.00
2019-04-22T07:32:20.625Z,812.00
2019-04-22T07:34:19.661Z,816.00
2019-04-22T07:35:23.913Z,820.00
2019-04-22T07:36:38.284Z,820.00
2019-04-22T07:37:28.348Z,816.00
2019-04-22T07:38:25.494Z,820.00
2019-04-22T07:39:15.584Z,824.00
2019-04-22T07:40:17.244Z,824.00
2019-04-22T07:41:12.357Z,824.00
2019-04-22T07:42:19.204Z,824.00
2019-04-22T07:43:19.595Z,824.00
2019-04-22T07:44:16.530Z,824.00
2019-04-22T07:45:20.247Z,824.00
2019-04-22T07:46:21.128Z,824.00
2019-04-22T07:47:34.141Z,824.00
2019-04-22T07:48:26.211Z,824.00
2019-04-22T07:49:23.719Z,824.00
2019-04-22T07:50:25.401Z,824.00
2019-04-22T07:51:33.292Z,828.00
2019-04-22T07:52:18.816Z,828.00
2019-04-22T07:53:19.577Z,828.00
2019-04-22T07:54:19.718Z,824.00
2019-04-22T07:55:11.624Z,824.00
2019-04-22T07:56:19.015Z,820.00
2019-04-22T07:57:21.315Z,836.00
2019-04-22T07:58:18.475Z,836.00
2019-04-22T07:59:15.184Z,836.00
2019-04-22T08:00:27.601Z,844.00
2019-04-22T08:01:20.483Z,844.00
2019-04-22T08:02:16.016Z,844.00
2019-04-22T08:03:16.567Z,844.00
2019-04-22T08:04:22.973Z,852.00
2019-04-22T08:05:18.420Z,852.00
2019-04-22T08:06:17.195Z,856.00
2019-04-22T08:07:18.140Z,860.00
2019-04-22T08:08:25.838Z,860.00
2019-04-22T08:09:20.169Z,864.00
2019-04-22T08:10:23.610Z,764.00
2019-04-22T08:11:31.047Z,868.00
2019-04-22T08:12:12.868Z,868.00
2019-04-22T08:13:17.036Z,876.00
2019-04-22T08:14:24.201Z,880.00
2019-04-22T08:15:19.343Z,876.00
2019-04-22T08:16:16.817Z,876.00
2019-04-22T08:17:41.001Z,884.00
2019-04-22T08:18:18.554Z,880.00
2019-04-22T08:19:23.555Z,884.00
2019-04-22T08:20:18.796Z,880.00
2019-04-22T08:21:16.335Z,880.00
2019-04-22T08:22:17.124Z,884.00
2019-04-22T08:23:16.430Z,884.00
2019-04-22T08:24:15.825Z,876.00
2019-04-22T08:25:17.973Z,880.00
2019-04-22T08:26:11.396Z,876.00
2019-04-22T08:27:15.156Z,884.00
2019-04-22T08:28:17.839Z,880.00
2019-04-22T08:29:21.667Z,876.00
2019-04-22T08:30:23.599Z,872.00
2019-04-22T08:31:23.361Z,872.00
2019-04-22T08:32:15.102Z,876.00
2019-04-22T08:33:22.095Z,840.00
2019-04-22T08:34:23.325Z,932.00
2019-04-22T08:35:20.357Z,936.00
2019-04-22T08:36:18.052Z,936.00
2019-04-22T08:37:41.517Z,936.00
2019-04-22T08:38:17.135Z,944.00
2019-04-22T08:39:18.859Z,944.00
2019-04-22T08:40:21.295Z,944.00
2019-04-22T08:41:33.540Z,944.00
2019-04-22T08:42:27.157Z,952.00
2019-04-22T08:43:20.835Z,948.00
2019-04-22T08:44:27.845Z,956.00
2019-04-22T08:45:14.344Z,960.00
2019-04-22T08:46:25.604Z,964.00
2019-04-22T08:48:15.058Z,972.00
2019-04-22T08:49:13.048Z,980.00
2019-04-22T08:50:15.121Z,980.00
2019-04-22T08:51:21.035Z,980.00
2019-04-22T08:52:33.975Z,976.00
2019-04-22T08:53:17.970Z,976.00
2019-04-22T08:54:34.085Z,980.00
2019-04-22T08:55:17.941Z,976.00
2019-04-22T08:57:20.649Z,984.00
2019-04-22T08:59:14.957Z,1000.00
2019-04-22T09:00:15.263Z,996.00
2019-04-22T09:01:21.213Z,1000.00
2019-04-22T09:02:22.980Z,1004.00
2019-04-22T09:03:18.747Z,1008.00
2019-04-22T09:04:14.566Z,1008.00
2019-04-22T09:05:22.539Z,1012.00
2019-04-22T09:06:25.177Z,864.00
2019-04-22T09:08:19.104Z,864.00
2019-04-22T09:09:36.277Z,872.00
2019-04-22T09:10:18.604Z,872.00
2019-04-22T09:11:20.111Z,876.00
2019-04-22T09:13:13.953Z,876.00
2019-04-22T09:14:15.771Z,884.00
2019-04-22T09:15:23.116Z,892.00
2019-04-22T09:16:19.328Z,892.00
2019-04-22T09:17:17.962Z,896.00
2019-04-22T09:18:25.478Z,900.00
2019-04-22T09:19:17.936Z,896.00
2019-04-22T09:20:20.544Z,904.00
2019-04-22T09:21:19.377Z,892.00
2019-04-22T09:23:23.649Z,908.00
2019-04-22T09:24:16.703Z,912.00
2019-04-22T09:25:21.811Z,920.00
2019-04-22T09:26:15.575Z,916.00
2019-04-22T09:28:17.444Z,916.00
2019-04-22T09:29:20.932Z,928.00
2019-04-22T09:30:20.302Z,932.00
2019-04-22T09:31:31.822Z,928.00
2019-04-22T09:32:18.915Z,928.00
2019-04-22T09:34:13.795Z,924.00
2019-04-22T09:35:20.043Z,932.00
2019-04-22T09:36:26.672Z,936.00
2019-04-22T09:37:20.408Z,944.00
2019-04-22T09:38:32.748Z,944.00
2019-04-22T09:39:17.407Z,1012.00
2019-04-22T09:40:15.848Z,1008.00
2019-04-22T09:41:18.702Z,1012.00
2019-04-22T09:42:22.270Z,1024.00
2019-04-22T09:43:18.398Z,1028.00
2019-04-22T09:44:16.533Z,1016.00
2019-04-22T09:45:15.149Z,1028.00
2019-04-22T09:46:17.904Z,1024.00
2019-04-22T09:47:19.085Z,1016.00
2019-04-22T09:48:19.081Z,1016.00
2019-04-22T09:49:23.236Z,1024.00
2019-04-22T09:50:22.259Z,1032.00
2019-04-22T09:51:12.302Z,1024.00
2019-04-22T09:52:18.701Z,1028.00
2019-04-22T09:53:20.064Z,1028.00
2019-04-22T09:54:21.712Z,1036.00
2019-04-22T09:55:17.990Z,1028.00
2019-04-22T09:56:17.553Z,1032.00
2019-04-22T09:57:16.940Z,628.00
2019-04-22T09:58:16.187Z,664.00
2019-04-22T09:59:14.041Z,688.00
2019-04-22T10:00:17.027Z,676.00
2019-04-22T10:01:24.365Z,700.00
2019-04-22T10:02:26.718Z,708.00
2019-04-22T10:03:19.885Z,680.00
2019-04-22T10:04:11.331Z,736.00
2019-04-22T10:06:23.092Z,696.00
2019-04-22T10:07:18.512Z,696.00
2019-04-22T10:08:24.617Z,684.00
2019-04-22T10:09:34.256Z,712.00
2019-04-22T10:10:17.110Z,716.00
2019-04-22T10:11:22.800Z,708.00
2019-04-22T10:12:19.529Z,728.00
2019-04-22T10:13:23.671Z,720.00
2019-04-22T10:14:30.880Z,744.00
2019-04-22T10:15:13.526Z,748.00
2019-04-22T10:16:20.299Z,772.00
2019-04-22T10:17:12.353Z,856.00
2019-04-22T10:18:19.659Z,976.00
2019-04-22T10:19:18.644Z,1304.00
2019-04-22T10:20:24.863Z,11812.00
2019-04-22T10:21:19.051Z,59744.00
2019-04-22T10:22:19.698Z,82720.00
2019-04-22T10:23:19.052Z,84192.00
2019-04-22T10:24:13.712Z,79616.00
2019-04-22T10:25:16.343Z,61344.00
2019-04-22T10:26:21.846Z,46560.00
2019-04-22T10:27:14.354Z,33472.00
2019-04-22T10:28:14.867Z,16512.00
2019-04-22T10:29:20.703Z,7996.00
2019-04-22T10:30:39.281Z,2324.00
2019-04-22T10:31:21.608Z,1764.00
2019-04-22T10:32:11.256Z,1540.00
2019-04-22T10:33:10.098Z,1392.00
2019-04-22T10:34:05.885Z,1280.00
2019-04-22T10:34:58.847Z,1216.00
2019-04-22T10:35:49.990Z,1148.00
2019-04-22T10:36:53.116Z,1088.00
2019-04-22T10:37:50.257Z,1028.00
2019-04-22T10:38:50.480Z,976.00
2019-04-22T10:39:56.246Z,916.00
2019-04-22T10:40:50.337Z,876.00
2019-04-22T10:41:48.926Z,840.00
2019-04-22T10:42:49.468Z,816.00
2019-04-22T10:43:48.900Z,804.00
2019-04-22T10:44:50.326Z,796.00
2019-04-22T10:45:50.179Z,788.00
2019-04-22T10:46:49.757Z,772.00
2019-04-22T10:47:50.036Z,784.00
2019-04-22T10:48:50.036Z,796.00
2019-04-22T10:49:48.848Z,784.00
2019-04-22T10:50:48.948Z,784.00
2019-04-22T10:51:48.826Z,776.00
2019-04-22T10:52:49.713Z,776.00
2019-04-22T10:53:49.335Z,776.00
2019-04-22T10:54:49.489Z,776.00
2019-04-22T10:55:49.789Z,784.00
2019-04-22T10:56:48.850Z,780.00
2019-04-22T10:57:50.598Z,784.00
2019-04-22T10:58:49.011Z,784.00
2019-04-22T10:59:50.317Z,772.00
2019-04-22T11:00:50.271Z,772.00
2019-04-22T11:01:48.785Z,776.00
2019-04-22T11:02:49.818Z,780.00
2019-04-22T11:03:49.165Z,776.00
2019-04-22T11:04:49.909Z,768.00
2019-04-22T11:05:48.668Z,772.00
2019-04-22T11:06:55.685Z,780.00
2019-04-22T11:07:55.737Z,780.00
2019-04-22T11:08:55.498Z,780.00
2019-04-22T11:09:59.046Z,784.00
2019-04-22T11:11:04.688Z,776.00
2019-04-22T11:11:58.423Z,772.00
2019-04-22T11:12:51.204Z,780.00
2019-04-22T11:13:49.617Z,788.00
2019-04-22T11:14:49.741Z,784.00
2019-04-22T11:15:48.859Z,780.00
2019-04-22T11:16:49.644Z,772.00
2019-04-22T11:17:49.556Z,776.00
2019-04-22T11:18:49.578Z,780.00
2019-04-22T11:19:49.859Z,792.00
2019-04-22T11:20:49.568Z,784.00
2019-04-22T11:21:59.981Z,788.00
2019-04-22T11:22:50.920Z,784.00
2019-04-22T11:23:48.489Z,784.00
2019-04-22T11:24:48.756Z,784.00
2019-04-22T11:25:49.907Z,784.00
2019-04-22T11:26:49.300Z,792.00
2019-04-22T11:27:49.374Z,800.00
2019-04-22T11:28:49.658Z,796.00
2019-04-22T11:29:49.745Z,796.00
2019-04-22T11:30:48.403Z,808.00
2019-04-22T11:31:48.388Z,804.00
2019-04-22T11:32:48.661Z,796.00
2019-04-22T11:33:48.526Z,796.00
2019-04-22T11:34:49.013Z,808.00
2019-04-22T11:35:48.346Z,820.00
2019-04-22T11:36:48.331Z,816.00
2019-04-22T11:37:48.635Z,808.00
2019-04-22T11:38:55.225Z,812.00
2019-04-22T11:40:02.104Z,800.00
2019-04-22T11:40:52.314Z,788.00
2019-04-22T11:41:49.843Z,788.00
2019-04-22T11:42:48.330Z,792.00
2019-04-22T11:43:49.408Z,796.00
2019-04-22T11:44:48.240Z,804.00
2019-04-22T11:45:49.223Z,804.00
2019-04-22T11:46:49.558Z,792.00
2019-04-22T11:47:48.205Z,792.00
2019-04-22T11:48:49.799Z,788.00
2019-04-22T11:49:48.179Z,804.00
2019-04-22T11:50:48.223Z,812.00
2019-04-22T11:51:48.165Z,804.00
2019-04-22T11:52:48.811Z,800.00
2019-04-22T11:53:49.123Z,800.00
2019-04-22T11:54:48.587Z,800.00
2019-04-22T11:55:49.007Z,800.00
2019-04-22T11:56:49.311Z,176.00
2019-04-22T11:57:48.088Z,176.00
2019-04-22T11:58:48.838Z,176.00
2019-04-22T11:59:49.009Z,176.00
2019-04-22T12:00:49.391Z,176.00
2019-04-22T12:01:48.755Z,176.00
2019-04-22T12:02:49.308Z,180.00
2019-04-22T12:03:49.287Z,176.00
2019-04-22T12:04:48.037Z,172.00
2019-04-22T12:05:48.134Z,176.00
2019-04-22T12:06:48.006Z,172.00
2019-04-22T12:07:48.915Z,172.00
2019-04-22T12:08:48.078Z,172.00
2019-04-22T12:09:48.009Z,172.00
2019-04-22T12:10:53.256Z,168.00
2019-04-22T12:11:49.503Z,168.00
2019-04-22T12:12:49.621Z,172.00
2019-04-22T12:13:48.204Z,168.00
2019-04-22T12:14:48.067Z,168.00
2019-04-22T12:15:49.136Z,168.00
2019-04-22T12:16:47.896Z,168.00
2019-04-22T12:17:48.893Z,148.00
2019-04-22T12:18:49.309Z,148.00
2019-04-22T12:19:48.238Z,148.00
2019-04-22T12:20:47.859Z,148.00
2019-04-22T12:21:49.139Z,144.00
2019-04-22T12:22:49.129Z,148.00
2019-04-22T12:23:48.691Z,148.00
2019-04-22T12:24:48.194Z,148.00
2019-04-22T12:25:54.236Z,144.00
2019-04-22T12:26:48.766Z,148.00
2019-04-22T12:27:47.755Z,144.00
2019-04-22T12:28:49.013Z,148.00
2019-04-22T12:29:49.016Z,144.00
2019-04-22T12:30:47.958Z,144.00
2019-04-22T12:31:47.720Z,144.00
2019-04-22T12:32:48.571Z,148.00
2019-04-22T12:33:47.761Z,144.00
2019-04-22T12:34:49.238Z,144.00
2019-04-22T12:35:48.508Z,144.00
2019-04-22T12:36:48.767Z,140.00
2019-04-22T12:37:53.261Z,144.00
2019-04-22T12:38:49.376Z,144.00
2019-04-22T12:39:48.103Z,144.00
2019-04-22T12:40:55.325Z,144.00
2019-04-22T12:41:49.849Z,140.00
2019-04-22T12:42:49.048Z,136.00
2019-04-22T12:43:47.590Z,136.00
2019-04-22T12:44:49.154Z,136.00
2019-04-22T12:45:48.007Z,136.00
2019-04-22T12:46:48.040Z,140.00
2019-04-22T12:47:48.307Z,140.00
2019-04-22T12:48:47.554Z,140.00
2019-04-22T12:49:57.220Z,136.00
2019-04-22T12:50:50.595Z,140.00
2019-04-22T12:51:47.547Z,136.00
2019-04-22T12:52:54.717Z,136.00
2019-04-22T12:53:48.871Z,136.00
2019-04-22T12:54:48.953Z,136.00
2019-04-22T12:55:48.073Z,136.00
2019-04-22T12:56:47.970Z,136.00
2019-04-22T12:57:48.567Z,140.00
2019-04-22T12:58:47.697Z,140.00
2019-04-22T12:59:47.957Z,140.00
2019-04-22T13:00:48.443Z,140.00
2019-04-22T13:01:48.828Z,140.00
2019-04-22T13:02:47.494Z,140.00
2019-04-22T13:03:47.357Z,140.00
2019-04-22T13:04:47.821Z,140.00
2019-04-22T13:05:47.335Z,140.00
2019-04-22T13:06:48.023Z,140.00
2019-04-22T13:07:47.580Z,140.00
2019-04-22T13:08:47.752Z,140.00
2019-04-22T13:09:47.419Z,140.00
2019-04-22T13:10:56.878Z,136.00
2019-04-22T13:11:48.925Z,140.00
2019-04-22T13:12:47.253Z,140.00
2019-04-22T13:13:47.252Z,140.00
2019-04-22T13:14:48.717Z,140.00
2019-04-22T13:15:48.832Z,140.00
2019-04-22T13:16:49.080Z,140.00
2019-04-22T13:17:59.526Z,136.00
2019-04-22T13:18:53.765Z,136.00
2019-04-22T13:19:48.173Z,140.00
2019-04-22T13:20:48.459Z,136.00
2019-04-22T13:21:47.166Z,140.00
2019-04-22T13:22:48.493Z,136.00
2019-04-22T13:23:48.704Z,140.00
2019-04-22T13:24:47.964Z,144.00
2019-04-22T13:25:47.307Z,152.00
2019-04-22T13:26:48.523Z,164.00
2019-04-22T13:27:47.088Z,180.00
2019-04-22T13:28:47.313Z,196.00
2019-04-22T13:29:47.059Z,196.00
2019-04-22T13:30:48.546Z,192.00
2019-04-22T13:31:47.038Z,168.00
2019-04-22T13:32:47.203Z,148.00
2019-04-22T13:33:50.959Z,140.00
2019-04-22T13:34:51.899Z,136.00
2019-04-22T13:35:48.119Z,136.00
2019-04-22T13:36:48.417Z,136.00
2019-04-22T13:37:46.985Z,132.00
2019-04-22T13:38:46.955Z,132.00
2019-04-22T13:39:47.335Z,128.00
2019-04-22T13:41:00.670Z,124.00
2019-04-22T13:41:52.172Z,124.00
2019-04-22T13:42:49.125Z,124.00
2019-04-22T13:43:47.268Z,128.00
2019-04-22T13:44:46.892Z,128.00
2019-04-22T13:45:47.718Z,128.00
2019-04-22T13:47:02.061Z,124.00
2019-04-22T13:48:06.854Z,124.00
2019-04-22T13:49:14.748Z,124.00
2019-04-22T13:50:25.969Z,120.00
2019-04-22T13:51:18.569Z,120.00
2019-04-22T13:52:20.676Z,120.00
2019-04-22T13:53:34.313Z,120.00
2019-04-22T13:54:42.464Z,116.00
2019-04-22T13:55:21.309Z,112.00